Time;durP1;ratioP1;P1;durP2;ratioP2;P2;SDS_P1;SDS_P2;PMS_P1;PMS_P2;Temp;Humidity;BMP_temperature;BMP_pressure;BME280_temperature;BME280_humidity;BME280_pressure;Samples;Min_cycle;Max_cycle;Signal;HPM_P1;HPM_P2
2023/10/24 00:00:57;;;;;;;28.17;23.77;;;10.30;99.90;;;;;;5004509;28;20042;-72
2023/10/24 00:03:23;;;;;;;30.10;24.02;;;10.40;99.90;;;;;;5023853;28;20420;-72
2023/10/24 00:05:51;;;;;;;29.75;25.48;;;10.30;99.90;;;;;;5004888;28;20104;-72
2023/10/24 00:08:17;;;;;;;26.67;23.75;;;10.40;99.90;;;;;;5016002;28;20523;-73
2023/10/24 00:10:43;;;;;;;26.33;23.15;;;10.40;99.90;;;;;;5005764;28;20059;-79
2023/10/24 00:13:09;;;;;;;29.63;24.73;;;10.40;99.90;;;;;;5035009;28;20041;-73
2023/10/24 00:15:34;;;;;;;29.85;24.67;;;10.40;99.90;;;;;;5000757;28;20045;-73
2023/10/24 00:18:00;;;;;;;29.83;24.88;;;10.40;99.90;;;;;;5008003;28;20095;-73
2023/10/24 00:20:26;;;;;;;30.40;25.30;;;10.40;99.90;;;;;;5002340;28;21181;-73
2023/10/24 00:22:51;;;;;;;28.10;24.73;;;10.30;99.90;;;;;;5016999;28;20084;-73
2023/10/24 00:25:17;;;;;;;31.02;24.92;;;10.30;99.90;;;;;;4995589;28;20044;-73
2023/10/24 00:27:44;;;;;;;30.60;24.40;;;10.30;99.90;;;;;;5015177;28;20164;-73
2023/10/24 00:30:10;;;;;;;29.45;25.25;;;10.30;99.90;;;;;;5020583;28;20408;-73
2023/10/24 00:32:36;;;;;;;33.08;25.60;;;10.40;99.90;;;;;;5005364;28;20041;-74
2023/10/24 00:35:06;;;;;;;31.00;25.33;;;10.40;99.90;;;;;;5003726;28;20067;-74
2023/10/24 00:37:32;;;;;;;35.30;26.97;;;10.40;99.90;;;;;;4996058;28;20077;-74
2023/10/24 00:39:58;;;;;;;31.20;25.02;;;10.30;99.90;;;;;;5006648;28;21848;-74
2023/10/24 00:42:23;;;;;;;34.90;27.00;;;10.40;99.90;;;;;;5015073;28;20045;-74
2023/10/24 00:44:49;;;;;;;34.90;26.60;;;10.40;99.90;;;;;;5018624;28;20148;-74
2023/10/24 00:47:15;;;;;;;32.75;26.83;;;10.30;99.90;;;;;;5005999;28;20068;-74
2023/10/24 00:49:41;;;;;;;34.95;26.80;;;10.30;99.90;;;;;;5003689;28;20120;-74
2023/10/24 00:52:07;;;;;;;33.20;27.27;;;10.30;99.90;;;;;;5023090;28;20140;-74
2023/10/24 00:54:34;;;;;;;37.30;27.23;;;10.30;99.90;;;;;;5014932;28;20041;-75
2023/10/24 00:57:03;;;;;;;35.85;27.50;;;10.30;99.90;;;;;;5014878;28;20048;-76
2023/10/24 00:59:29;;;;;;;36.15;27.10;;;10.30;99.90;;;;;;5016762;28;20083;-75
2023/10/24 01:01:55;;;;;;;37.03;28.70;;;10.30;99.90;;;;;;5020238;28;20041;-75
2023/10/24 01:04:23;;;;;;;35.70;28.58;;;10.40;99.90;;;;;;5001892;28;20053;-74
2023/10/24 01:06:48;;;;;;;31.98;25.50;;;10.40;99.90;;;;;;5020183;28;20238;-75
2023/10/24 01:09:14;;;;;;;33.20;26.40;;;10.40;99.90;;;;;;4999700;28;20053;-75
2023/10/24 01:11:40;;;;;;;34.63;27.00;;;10.40;99.90;;;;;;5003953;28;20041;-75
2023/10/24 01:14:06;;;;;;;31.23;25.88;;;10.40;99.90;;;;;;5001328;28;20046;-75
2023/10/24 01:16:44;;;;;;;31.95;24.80;;;10.40;99.90;;;;;;5004759;28;20100;-75
2023/10/24 01:19:11;;;;;;;37.10;27.80;;;10.40;99.90;;;;;;5020342;28;20498;-74
2023/10/24 01:21:45;;;;;;;30.60;24.98;;;10.50;99.90;;;;;;5019945;28;20045;-74
2023/10/24 01:24:13;;;;;;;33.85;26.40;;;10.50;99.90;;;;;;5005413;28;20076;-74
2023/10/24 01:26:40;;;;;;;27.00;24.08;;;10.50;99.90;;;;;;5017563;28;20033;-74
2023/10/24 01:29:06;;;;;;;30.50;24.55;;;10.50;99.90;;;;;;5005895;28;20048;-75
2023/10/24 01:31:32;;;;;;;30.10;24.42;;;10.50;99.90;;;;;;5001643;28;20037;-74
2023/10/24 01:33:57;;;;;;;32.42;24.23;;;10.50;99.90;;;;;;5000059;28;20053;-73
2023/10/24 01:36:23;;;;;;;31.35;23.60;;;10.60;99.90;;;;;;5003218;28;20148;-74
2023/10/24 01:38:49;;;;;;;34.45;25.50;;;10.50;99.90;;;;;;4990837;28;20144;-73
2023/10/24 01:41:15;;;;;;;29.98;23.73;;;10.60;99.90;;;;;;5002062;28;20045;-74
2023/10/24 01:43:40;;;;;;;32.25;23.63;;;10.60;99.90;;;;;;5001974;28;20044;-74
2023/10/24 01:46:06;;;;;;;31.23;24.35;;;10.60;99.90;;;;;;5018314;28;20037;-74
2023/10/24 01:48:32;;;;;;;30.98;24.15;;;10.60;99.90;;;;;;5019540;28;20045;-74
2023/10/24 01:50:57;;;;;;;29.52;23.40;;;10.60;99.90;;;;;;5018528;28;20091;-74
2023/10/24 01:53:23;;;;;;;27.00;22.60;;;10.60;99.90;;;;;;5006956;28;20107;-74
2023/10/24 01:55:49;;;;;;;27.60;22.85;;;10.60;99.90;;;;;;5023085;28;20046;-73
2023/10/24 01:58:15;;;;;;;27.60;20.98;;;10.60;99.90;;;;;;5003633;28;20389;-74
2023/10/24 02:00:41;;;;;;;25.10;22.13;;;10.70;99.90;;;;;;5018646;28;20120;-73
2023/10/24 02:03:09;;;;;;;28.42;22.30;;;10.70;99.90;;;;;;5016658;28;20041;-73
2023/10/24 02:05:35;;;;;;;25.35;20.58;;;10.70;99.90;;;;;;5019250;28;20044;-73
2023/10/24 02:08:02;;;;;;;28.77;22.38;;;10.70;99.90;;;;;;5019923;28;20046;-75
2023/10/24 02:10:28;;;;;;;29.17;21.83;;;10.70;99.90;;;;;;5005615;28;20057;-75
2023/10/24 02:12:54;;;;;;;25.85;21.77;;;10.70;99.90;;;;;;5011382;28;20041;-75
2023/10/24 02:15:19;;;;;;;27.48;22.30;;;10.70;99.90;;;;;;5016287;28;20041;-75
2023/10/24 02:17:45;;;;;;;26.25;21.35;;;10.80;99.90;;;;;;5009355;28;20589;-75
2023/10/24 02:20:11;;;;;;;25.15;20.80;;;10.80;99.90;;;;;;5021407;28;20404;-75
2023/10/24 02:22:37;;;;;;;29.92;23.15;;;10.80;99.90;;;;;;5021983;28;20095;-75
2023/10/24 02:25:03;;;;;;;29.73;23.50;;;10.80;99.90;;;;;;5011454;28;20045;-75
2023/10/24 02:27:29;;;;;;;29.08;22.92;;;10.80;99.90;;;;;;5009218;28;20041;-75
2023/10/24 02:29:54;;;;;;;31.35;21.70;;;10.80;99.90;;;;;;5015600;28;20049;-75
2023/10/24 02:32:20;;;;;;;31.95;22.27;;;10.80;99.90;;;;;;5018844;28;20048;-76
2023/10/24 02:34:49;;;;;;;25.98;22.27;;;10.80;99.90;;;;;;5017214;28;20045;-75
2023/10/24 02:37:16;;;;;;;30.13;24.25;;;10.80;99.90;;;;;;5015740;28;20080;-76
2023/10/24 02:39:42;;;;;;;27.42;22.15;;;10.80;99.90;;;;;;5011965;28;20352;-75
2023/10/24 02:42:08;;;;;;;30.52;22.85;;;10.90;99.90;;;;;;5032916;28;20052;-75
2023/10/24 02:44:36;;;;;;;31.17;23.88;;;10.90;99.90;;;;;;5001716;28;20322;-75
2023/10/24 02:47:02;;;;;;;30.27;23.63;;;10.80;99.90;;;;;;5025776;28;20095;-76
2023/10/24 02:49:30;;;;;;;31.73;24.20;;;10.90;99.90;;;;;;5007667;28;20041;-76
2023/10/24 02:51:56;;;;;;;30.92;24.30;;;10.90;99.90;;;;;;5016654;28;20084;-76
2023/10/24 02:54:22;;;;;;;29.08;23.75;;;10.90;99.90;;;;;;5020724;28;20081;-75
2023/10/24 02:56:48;;;;;;;31.05;23.90;;;10.90;99.90;;;;;;5009563;28;20412;-75
2023/10/24 02:59:14;;;;;;;31.40;25.15;;;10.90;99.90;;;;;;5010358;28;20531;-74
2023/10/24 03:01:40;;;;;;;32.90;25.70;;;10.90;99.90;;;;;;5037108;28;20503;-75
2023/10/24 03:04:05;;;;;;;31.65;26.15;;;10.90;99.90;;;;;;5035779;28;20129;-75
2023/10/24 03:06:31;;;;;;;29.15;23.08;;;10.90;99.90;;;;;;5009839;28;20088;-75
2023/10/24 03:08:57;;;;;;;28.73;24.13;;;10.90;99.90;;;;;;5019950;28;20061;-74
2023/10/24 03:11:24;;;;;;;30.63;25.42;;;10.90;99.90;;;;;;5009998;28;20052;-74
2023/10/24 03:13:52;;;;;;;28.70;24.15;;;10.90;99.90;;;;;;5003908;28;20050;-75
2023/10/24 03:16:17;;;;;;;30.27;25.45;;;10.90;99.90;;;;;;5001693;28;20053;-74
2023/10/24 03:18:43;;;;;;;33.40;26.70;;;10.90;99.90;;;;;;4999100;28;20040;-74
2023/10/24 03:21:09;;;;;;;32.97;26.35;;;11.00;99.90;;;;;;5013424;28;20054;-74
2023/10/24 03:23:35;;;;;;;34.33;28.08;;;11.00;99.90;;;;;;5004288;28;20053;-75
2023/10/24 03:26:05;;;;;;;46.58;30.13;;;11.00;99.90;;;;;;5014749;28;20045;-75
2023/10/24 03:28:32;;;;;;;35.25;25.77;;;11.00;99.90;;;;;;5006978;28;20077;-75
2023/10/24 03:31:06;;;;;;;40.35;29.13;;;11.00;99.90;;;;;;5009023;28;20497;-75
2023/10/24 03:33:34;;;;;;;34.42;26.70;;;11.00;99.90;;;;;;5018268;28;20056;-75
2023/10/24 03:36:01;;;;;;;35.15;27.50;;;11.00;99.90;;;;;;5022160;28;20052;-81
2023/10/24 03:38:27;;;;;;;40.60;28.30;;;11.00;99.90;;;;;;5022032;28;20483;-81
2023/10/24 03:40:53;;;;;;;42.00;30.52;;;11.00;99.90;;;;;;5021783;28;20061;-81
2023/10/24 03:43:20;;;;;;;35.63;26.98;;;11.00;99.90;;;;;;5024167;28;20484;-81
2023/10/24 03:45:46;;;;;;;36.08;28.58;;;11.10;99.90;;;;;;4995862;28;20454;-81
2023/10/24 03:48:12;;;;;;;35.05;28.42;;;11.00;99.90;;;;;;4998201;28;20141;-81
2023/10/24 03:50:39;;;;;;;36.40;28.67;;;11.10;99.90;;;;;;5007227;28;20443;-80
2023/10/24 03:53:06;;;;;;;37.58;30.63;;;11.10;99.90;;;;;;5024207;28;20053;-81
2023/10/24 03:55:32;;;;;;;39.50;30.75;;;11.10;99.90;;;;;;5018095;28;20061;-80
2023/10/24 03:57:58;;;;;;;41.05;31.88;;;11.10;99.90;;;;;;5020102;28;20056;-82
2023/10/24 04:00:25;;;;;;;43.20;31.50;;;11.10;99.90;;;;;;4995876;28;20041;-82
2023/10/24 04:02:54;;;;;;;46.85;33.13;;;11.10;99.90;;;;;;4993328;28;20071;-82
2023/10/24 04:05:20;;;;;;;40.78;30.83;;;11.10;99.90;;;;;;5013790;28;20096;-81
2023/10/24 04:07:46;;;;;;;43.50;32.90;;;11.10;99.90;;;;;;5020973;28;20049;-80
2023/10/24 04:10:14;;;;;;;43.78;33.83;;;11.10;99.90;;;;;;5004731;28;20042;-82
2023/10/24 04:12:40;;;;;;;51.85;35.83;;;11.20;99.90;;;;;;5016505;28;20124;-80
2023/10/24 04:15:07;;;;;;;44.05;34.47;;;11.10;99.90;;;;;;5004807;28;20048;-81
2023/10/24 04:17:36;;;;;;;58.10;38.88;;;11.20;99.90;;;;;;5014422;28;20400;-81
2023/10/24 04:20:02;;;;;;;58.20;37.90;;;11.20;99.90;;;;;;5006480;28;20068;-81
2023/10/24 04:22:28;;;;;;;47.33;36.63;;;11.20;99.90;;;;;;5000277;28;20119;-81
2023/10/24 04:24:54;;;;;;;45.05;34.72;;;11.20;99.90;;;;;;5000633;28;20511;-81
2023/10/24 04:27:20;;;;;;;45.72;35.58;;;11.20;99.90;;;;;;5002480;28;20041;-81
2023/10/24 04:29:46;;;;;;;40.58;34.05;;;11.20;99.90;;;;;;5013937;28;20049;-81
2023/10/24 04:32:12;;;;;;;56.83;38.90;;;11.30;99.90;;;;;;5002688;28;20076;-81
2023/10/24 04:34:41;;;;;;;41.20;33.47;;;11.30;99.90;;;;;;4998917;28;20081;-82
2023/10/24 04:37:07;;;;;;;53.45;36.63;;;11.30;99.90;;;;;;5013485;28;20065;-81
2023/10/24 04:39:32;;;;;;;53.35;37.22;;;11.30;99.90;;;;;;5003193;28;20146;-81
2023/10/24 04:41:59;;;;;;;38.00;32.20;;;11.40;99.90;;;;;;4992794;28;20493;-81
2023/10/24 04:44:24;;;;;;;57.03;37.45;;;11.40;99.90;;;;;;4992064;28;20064;-81
2023/10/24 04:46:50;;;;;;;33.85;30.35;;;11.40;99.90;;;;;;5008978;28;20049;-81
2023/10/24 04:49:16;;;;;;;33.45;29.95;;;11.40;99.90;;;;;;5014922;28;20117;-83
2023/10/24 04:51:43;;;;;;;33.60;29.90;;;11.40;99.90;;;;;;5013918;28;20121;-83
2023/10/24 04:54:09;;;;;;;34.75;29.80;;;11.40;99.90;;;;;;5011004;28;20046;-81
2023/10/24 04:56:35;;;;;;;33.08;29.50;;;11.40;99.90;;;;;;5018149;28;20045;-82
2023/10/24 04:59:02;;;;;;;35.78;30.13;;;11.40;99.90;;;;;;5035657;28;20128;-81
2023/10/24 05:01:37;;;;;;;29.40;26.40;;;11.50;99.90;;;;;;5017145;28;20056;-81
2023/10/24 05:04:06;;;;;;;30.00;26.80;;;11.50;99.90;;;;;;5005006;28;20053;-81
2023/10/24 05:06:32;;;;;;;30.90;27.83;;;11.50;99.90;;;;;;5019761;28;20125;-83
2023/10/24 05:08:59;;;;;;;28.52;25.58;;;11.50;99.90;;;;;;5016166;28;20551;-81
2023/10/24 05:11:25;;;;;;;25.52;22.98;;;11.40;99.90;;;;;;5005168;28;20041;-74
2023/10/24 05:13:51;;;;;;;27.30;24.65;;;11.50;99.90;;;;;;5004764;28;20386;-75
2023/10/24 05:16:17;;;;;;;25.52;23.00;;;11.50;99.90;;;;;;5008840;28;20113;-75
2023/10/24 05:18:42;;;;;;;25.58;23.08;;;11.50;99.90;;;;;;5021759;28;20029;-75
2023/10/24 05:21:08;;;;;;;24.40;21.85;;;11.50;99.90;;;;;;4996359;28;20040;-74
2023/10/24 05:23:37;;;;;;;23.27;20.98;;;11.50;99.90;;;;;;5024045;28;20511;-75
2023/10/24 05:26:06;;;;;;;30.90;24.90;;;11.40;99.90;;;;;;5002242;28;20114;-75
2023/10/24 05:28:34;;;;;;;24.05;21.75;;;11.40;99.90;;;;;;5001446;28;20050;-75
2023/10/24 05:31:04;;;;;;;24.10;20.75;;;11.40;99.90;;;;;;5022134;28;20123;-75
2023/10/24 05:33:30;;;;;;;22.00;19.75;;;11.40;99.90;;;;;;5002139;28;20053;-74
2023/10/24 05:35:56;;;;;;;24.52;21.95;;;11.40;99.90;;;;;;5003180;28;20049;-75
2023/10/24 05:38:22;;;;;;;24.75;22.20;;;11.40;99.90;;;;;;5021820;28;20099;-75
2023/10/24 05:40:47;;;;;;;21.45;19.35;;;11.40;99.90;;;;;;5025497;28;20455;-75
2023/10/24 05:43:13;;;;;;;21.65;19.42;;;11.40;99.90;;;;;;5011055;28;20496;-75
2023/10/24 05:45:39;;;;;;;19.02;17.15;;;11.40;99.90;;;;;;5022757;28;20049;-75
2023/10/24 05:48:05;;;;;;;21.45;19.23;;;11.40;99.90;;;;;;5023067;28;20108;-74
2023/10/24 05:50:31;;;;;;;20.92;18.83;;;11.40;99.90;;;;;;5010306;28;20083;-75
2023/10/24 05:52:56;;;;;;;20.67;18.67;;;11.40;99.90;;;;;;5002543;28;20136;-75
2023/10/24 05:55:22;;;;;;;19.88;17.88;;;11.30;99.90;;;;;;5013005;28;20078;-75
2023/10/24 05:57:48;;;;;;;21.27;18.92;;;11.40;99.90;;;;;;5009648;28;20038;-75
2023/10/24 06:00:14;;;;;;;31.30;22.48;;;11.30;99.90;;;;;;5000069;28;20315;-75
2023/10/24 06:02:40;;;;;;;17.98;16.35;;;11.40;99.90;;;;;;4996183;28;20069;-75
2023/10/24 06:05:06;;;;;;;20.70;18.63;;;11.40;99.90;;;;;;5012727;28;20038;-75
2023/10/24 06:07:32;;;;;;;19.77;17.75;;;11.30;99.90;;;;;;5012923;28;20061;-75
2023/10/24 06:09:58;;;;;;;28.23;20.88;;;11.30;99.90;;;;;;5014925;28;20045;-75
2023/10/24 06:12:24;;;;;;;19.20;17.30;;;11.40;99.90;;;;;;5023862;28;20363;-74
2023/10/24 06:14:49;;;;;;;20.67;18.58;;;11.30;99.90;;;;;;5014230;28;20076;-75
2023/10/24 06:17:18;;;;;;;21.17;19.08;;;11.30;99.90;;;;;;5020341;28;20060;-75
2023/10/24 06:19:46;;;;;;;24.80;20.73;;;11.30;99.90;;;;;;5014936;28;20042;-74
2023/10/24 06:22:12;;;;;;;23.48;21.00;;;11.40;99.90;;;;;;5009549;28;20068;-75
2023/10/24 06:24:38;;;;;;;21.35;18.33;;;11.30;99.90;;;;;;5020153;28;20744;-75
2023/10/24 06:27:09;;;;;;;19.65;17.67;;;11.40;99.90;;;;;;5001852;28;20045;-75
2023/10/24 06:29:35;;;;;;;20.45;18.45;;;11.30;99.90;;;;;;4999740;28;20044;-75
2023/10/24 06:32:01;;;;;;;22.35;19.95;;;11.30;99.90;;;;;;5009292;28;20041;-74
2023/10/24 06:34:26;;;;;;;20.83;18.30;;;11.30;99.90;;;;;;4990010;28;20099;-75
2023/10/24 06:36:52;;;;;;;22.38;19.80;;;11.30;99.90;;;;;;5027066;28;20117;-75
2023/10/24 06:39:18;;;;;;;25.92;21.85;;;11.30;99.90;;;;;;5009443;28;20053;-75
2023/10/24 06:41:45;;;;;;;22.00;19.45;;;11.30;99.90;;;;;;5026168;28;20044;-74
2023/10/24 06:44:11;;;;;;;24.65;20.67;;;11.30;99.90;;;;;;5022869;28;20579;-74
2023/10/24 06:46:36;;;;;;;20.45;18.30;;;11.30;99.90;;;;;;5011289;28;20048;-74
2023/10/24 06:49:02;;;;;;;19.52;17.55;;;11.30;99.90;;;;;;5004903;28;20053;-74
2023/10/24 06:51:28;;;;;;;18.35;16.65;;;11.30;99.90;;;;;;5035043;28;20041;-74
2023/10/24 06:53:54;;;;;;;18.73;16.92;;;11.30;99.90;;;;;;4999558;28;20050;-75
2023/10/24 06:56:20;;;;;;;18.33;16.42;;;11.30;99.90;;;;;;5022275;28;20060;-81
2023/10/24 06:58:45;;;;;;;18.77;16.88;;;11.30;99.90;;;;;;5006795;28;20123;-81
2023/10/24 07:01:11;;;;;;;21.67;18.60;;;11.30;99.90;;;;;;5039639;28;20053;-81
2023/10/24 07:03:37;;;;;;;21.35;18.75;;;11.30;99.90;;;;;;5022041;28;20437;-74
2023/10/24 07:06:04;;;;;;;20.80;17.73;;;11.30;99.90;;;;;;5010229;28;20622;-74
2023/10/24 07:08:34;;;;;;;17.90;16.10;;;11.30;99.90;;;;;;5021636;28;20064;-74
2023/10/24 07:11:00;;;;;;;19.10;17.10;;;11.30;99.90;;;;;;5020729;28;20455;-75
2023/10/24 07:13:25;;;;;;;18.25;16.35;;;11.30;99.90;;;;;;5040648;28;20049;-82
2023/10/24 07:15:51;;;;;;;16.58;14.88;;;11.30;99.90;;;;;;5007939;28;20041;-82
2023/10/24 07:18:17;;;;;;;17.10;15.35;;;11.30;99.90;;;;;;5018101;28;20444;-82
2023/10/24 07:20:43;;;;;;;20.20;17.15;;;11.30;99.90;;;;;;5007160;28;20396;-82
2023/10/24 07:23:08;;;;;;;17.25;15.55;;;11.30;99.90;;;;;;5022574;28;20041;-82
2023/10/24 07:25:35;;;;;;;18.55;16.75;;;11.30;99.90;;;;;;5002041;28;20377;-83
2023/10/24 07:28:01;;;;;;;18.80;16.90;;;11.30;99.90;;;;;;5021480;28;20404;-83
2023/10/24 07:30:27;;;;;;;19.98;17.88;;;11.30;99.90;;;;;;5003428;28;20038;-82
2023/10/24 07:32:56;;;;;;;19.15;17.08;;;11.30;99.90;;;;;;5018579;28;20046;-82
2023/10/24 07:35:23;;;;;;;22.38;17.40;;;11.30;99.90;;;;;;5017530;28;20128;-82
2023/10/24 07:37:48;;;;;;;18.05;16.20;;;11.30;99.90;;;;;;5022724;28;21346;-82
2023/10/24 07:40:15;;;;;;;18.83;16.83;;;11.30;99.90;;;;;;5024508;28;20543;-82
2023/10/24 07:42:41;;;;;;;18.40;16.40;;;11.30;99.90;;;;;;5018141;28;20643;-81
2023/10/24 07:45:07;;;;;;;19.52;17.52;;;11.30;99.90;;;;;;5010960;28;21320;-82
2023/10/24 07:47:33;;;;;;;20.63;18.52;;;11.30;99.90;;;;;;5021947;28;20057;-81
2023/10/24 07:49:59;;;;;;;19.77;17.58;;;11.30;99.90;;;;;;5006003;28;20045;-81
2023/10/24 07:52:25;;;;;;;21.48;18.00;;;11.30;99.90;;;;;;5016126;28;20038;-80
2023/10/24 07:54:51;;;;;;;19.05;16.98;;;11.30;99.90;;;;;;5024417;28;20182;-80
2023/10/24 07:57:17;;;;;;;17.85;15.95;;;11.30;99.90;;;;;;5021799;28;20037;-81
2023/10/24 07:59:43;;;;;;;17.23;15.07;;;11.30;99.90;;;;;;5008570;28;20045;-82
2023/10/24 08:02:08;;;;;;;18.23;15.30;;;11.30;99.90;;;;;;5020579;28;20399;-82
2023/10/24 08:04:34;;;;;;;18.33;15.68;;;11.30;99.90;;;;;;5019887;28;20041;-81
2023/10/24 08:07:03;;;;;;;16.55;14.88;;;11.30;99.90;;;;;;5024207;28;20045;-83
2023/10/24 08:09:31;;;;;;;17.13;15.32;;;11.30;99.90;;;;;;5005759;28;20124;-82
2023/10/24 08:11:57;;;;;;;19.52;16.10;;;11.30;99.90;;;;;;5005208;28;20128;-82
2023/10/24 08:14:23;;;;;;;21.20;16.23;;;11.30;99.90;;;;;;5005361;28;20033;-82
2023/10/24 08:16:48;;;;;;;16.75;15.05;;;11.30;99.90;;;;;;5019619;28;20048;-82
2023/10/24 08:19:14;;;;;;;20.15;16.08;;;11.30;99.90;;;;;;5024055;28;20465;-81
2023/10/24 08:21:40;;;;;;;23.73;17.63;;;11.30;99.90;;;;;;5007048;28;20519;-81
2023/10/24 08:24:06;;;;;;;18.70;16.70;;;11.30;99.90;;;;;;5006555;28;20069;-81
2023/10/24 08:26:32;;;;;;;19.13;16.70;;;11.30;99.90;;;;;;5001833;28;20198;-73
2023/10/24 08:28:57;;;;;;;21.73;17.80;;;11.30;99.90;;;;;;5024149;28;20057;-73
2023/10/24 08:31:23;;;;;;;19.00;15.98;;;11.30;99.90;;;;;;5016374;28;20096;-73
2023/10/24 08:33:49;;;;;;;20.50;17.25;;;11.30;99.90;;;;;;5024147;28;20080;-73
2023/10/24 08:36:15;;;;;;;22.10;17.95;;;11.30;99.90;;;;;;5015134;28;20712;-73
2023/10/24 08:38:40;;;;;;;21.88;18.20;;;11.30;99.90;;;;;;5005637;28;20121;-73
2023/10/24 08:41:06;;;;;;;25.98;19.30;;;11.30;99.90;;;;;;5019853;28;20061;-74
2023/10/24 08:43:34;;;;;;;20.48;18.35;;;11.30;99.90;;;;;;5015729;28;20072;-83
2023/10/24 08:46:01;;;;;;;19.67;17.58;;;11.30;99.90;;;;;;5008339;28;20344;-84
2023/10/24 08:48:30;;;;;;;21.77;18.50;;;11.30;99.90;;;;;;5007864;28;20542;-81
2023/10/24 08:50:56;;;;;;;22.08;18.50;;;11.30;99.90;;;;;;5017818;28;20037;-75
2023/10/24 08:53:22;;;;;;;28.40;20.92;;;11.30;99.90;;;;;;5001375;28;20037;-74
2023/10/24 08:55:51;;;;;;;19.60;17.50;;;11.30;99.90;;;;;;5022291;28;20052;-75
2023/10/24 08:58:18;;;;;;;22.55;17.63;;;11.40;99.90;;;;;;5001174;28;20551;-75
2023/10/24 09:00:45;;;;;;;21.15;17.77;;;11.40;99.90;;;;;;5016781;28;20145;-75
2023/10/24 09:03:11;;;;;;;25.63;19.52;;;11.40;99.90;;;;;;5022218;28;20056;-75
2023/10/24 09:05:39;;;;;;;20.60;18.40;;;11.40;99.90;;;;;;5005940;28;20042;-75
2023/10/24 09:08:05;;;;;;;18.88;16.83;;;11.30;99.90;;;;;;5034613;28;20128;-74
2023/10/24 09:10:31;;;;;;;19.00;16.73;;;11.30;99.90;;;;;;5004973;28;20046;-74
2023/10/24 09:12:57;;;;;;;24.35;19.13;;;11.30;99.90;;;;;;5008308;28;20037;-74
2023/10/24 09:15:23;;;;;;;20.92;17.23;;;11.30;99.90;;;;;;5018075;28;20053;-81
2023/10/24 09:17:49;;;;;;;18.38;16.52;;;11.30;99.90;;;;;;5020740;28;20156;-82
2023/10/24 09:20:18;;;;;;;20.83;18.05;;;11.30;99.90;;;;;;4999865;28;20041;-81
2023/10/24 09:22:45;;;;;;;18.80;16.42;;;11.30;99.90;;;;;;5019028;28;20916;-82
2023/10/24 09:25:11;;;;;;;21.48;18.20;;;11.30;99.90;;;;;;5024469;28;20041;-82
2023/10/24 09:27:36;;;;;;;23.77;19.63;;;11.30;99.90;;;;;;5019291;28;20052;-82
2023/10/24 09:30:11;;;;;;;18.52;15.70;;;11.30;99.90;;;;;;5023413;28;20045;-82
2023/10/24 09:32:40;;;;;;;19.38;16.90;;;11.30;99.90;;;;;;5001852;28;20060;-82
2023/10/24 09:35:21;;;;;;;18.63;15.93;;;11.30;99.90;;;;;;4997442;28;20041;-82
2023/10/24 09:37:48;;;;;;;20.27;18.15;;;11.30;99.90;;;;;;5003360;28;20053;-82
2023/10/24 09:40:13;;;;;;;16.85;15.13;;;11.30;99.90;;;;;;5001924;28;20049;-74
2023/10/24 09:42:42;;;;;;;19.55;17.27;;;11.30;99.90;;;;;;5002937;28;20532;-74
2023/10/24 09:45:09;;;;;;;19.55;17.45;;;11.30;99.90;;;;;;5005030;28;20044;-75
2023/10/24 09:47:37;;;;;;;19.63;17.60;;;11.30;99.90;;;;;;5003253;28;20042;-74
2023/10/24 09:50:05;;;;;;;16.52;14.88;;;11.30;99.90;;;;;;5004268;28;20038;-74
2023/10/24 09:52:31;;;;;;;16.35;14.60;;;11.30;99.90;;;;;;5016785;28;20034;-74
2023/10/24 09:54:58;;;;;;;17.80;16.00;;;11.30;99.90;;;;;;4998468;28;20053;-74
2023/10/24 09:57:26;;;;;;;16.67;15.05;;;11.30;99.90;;;;;;5018947;28;20048;-74
2023/10/24 09:59:54;;;;;;;17.83;16.02;;;11.30;99.90;;;;;;5012266;28;20500;-74
2023/10/24 10:02:23;;;;;;;19.27;17.17;;;11.30;99.90;;;;;;5011332;28;20058;-74
2023/10/24 10:04:49;;;;;;;17.27;15.00;;;11.30;99.90;;;;;;5018419;28;20103;-74
2023/10/24 10:07:17;;;;;;;17.67;15.88;;;11.30;99.90;;;;;;5019249;28;20046;-75
2023/10/24 10:09:50;;;;;;;21.88;19.67;;;11.30;99.90;;;;;;5000853;28;20102;-74
2023/10/24 10:12:18;;;;;;;22.35;20.15;;;11.30;99.90;;;;;;5006342;28;20048;-74
2023/10/24 10:15:17;;;;;;;19.25;17.35;;;11.30;99.90;;;;;;5016205;28;20137;-73
2023/10/24 10:17:57;;;;;;;17.38;15.73;;;11.30;99.90;;;;;;5021924;28;20042;-74
2023/10/24 10:20:37;;;;;;;16.88;15.27;;;11.40;99.90;;;;;;5024264;28;20072;-73
2023/10/24 10:23:22;;;;;;;;;;;11.30;99.90;;;;;;5012938;28;20463;-74
2023/10/24 10:25:58;;;;;;;16.73;15.13;;;11.40;99.90;;;;;;5022711;28;19925;-73
2023/10/24 10:29:01;;;;;;;20.33;18.27;;;11.40;99.90;;;;;;5025198;28;20060;-74
2023/10/24 10:32:01;;;;;;;16.73;15.18;;;11.50;99.90;;;;;;5007357;28;20077;-74
2023/10/24 10:34:34;;;;;;;17.48;15.68;;;11.50;99.90;;;;;;5002268;28;20140;-74
2023/10/24 10:37:00;;;;;;;15.25;13.65;;;11.50;99.90;;;;;;5006862;28;20061;-73
2023/10/24 10:39:26;;;;;;;18.40;16.60;;;11.50;99.90;;;;;;5009297;28;20412;-74
2023/10/24 10:41:52;;;;;;;18.90;17.10;;;11.60;99.90;;;;;;5007213;28;20133;-74
2023/10/24 10:44:40;;;;;;;20.38;17.30;;;11.60;99.90;;;;;;5021314;28;20048;-73
2023/10/24 10:47:08;;;;;;;17.75;15.88;;;11.70;99.90;;;;;;5007677;28;20049;-73
2023/10/24 10:49:56;;;;;;;18.40;16.50;;;11.70;99.90;;;;;;5023541;28;20048;-73
2023/10/24 10:52:41;;;;;;;18.60;16.63;;;11.70;99.90;;;;;;4998961;28;20991;-75
2023/10/24 10:55:26;;;;;;;18.95;16.95;;;11.70;99.90;;;;;;5016731;28;20068;-73
2023/10/24 10:58:22;;;;;;;17.15;15.35;;;11.80;99.90;;;;;;5011577;28;20053;-73
2023/10/24 11:01:03;;;;;;;19.73;17.63;;;11.80;99.90;;;;;;5006169;28;20075;-73
2023/10/24 11:03:39;;;;;;;17.08;15.45;;;11.80;99.90;;;;;;5005035;28;20053;-73
2023/10/24 11:06:09;;;;;;;18.35;16.55;;;11.90;99.90;;;;;;5041694;28;20727;-73
2023/10/24 11:08:35;;;;;;;22.25;20.02;;;11.90;99.90;;;;;;5018089;28;20103;-73
2023/10/24 11:11:01;;;;;;;20.13;18.17;;;11.90;99.90;;;;;;5026272;28;20045;-73
2023/10/24 11:13:36;;;;;;;19.38;17.45;;;11.90;99.90;;;;;;5020661;28;20077;-73
2023/10/24 11:16:04;;;;;;;19.70;17.70;;;11.90;99.90;;;;;;5007768;28;20046;-73
2023/10/24 11:18:31;;;;;;;18.38;16.35;;;11.90;99.90;;;;;;5020266;28;20069;-73
2023/10/24 11:20:58;;;;;;;20.58;18.42;;;12.00;99.90;;;;;;5006837;28;20056;-73
2023/10/24 11:23:24;;;;;;;18.95;17.00;;;12.00;99.90;;;;;;5018566;28;20341;-73
2023/10/24 11:25:50;;;;;;;17.77;15.98;;;12.00;99.90;;;;;;5006604;28;20141;-73
2023/10/24 11:28:17;;;;;;;18.25;16.50;;;12.00;99.90;;;;;;5021370;28;20030;-73
2023/10/24 11:30:43;;;;;;;18.55;16.73;;;12.00;99.90;;;;;;5003035;28;20033;-73
2023/10/24 11:33:09;;;;;;;18.63;16.17;;;12.10;99.90;;;;;;5018644;28;20531;-73
2023/10/24 11:35:35;;;;;;;19.10;17.23;;;12.10;99.90;;;;;;5019949;28;20169;-73
2023/10/24 11:38:00;;;;;;;17.63;15.75;;;12.20;99.90;;;;;;5006372;28;20076;-73
2023/10/24 11:40:26;;;;;;;17.92;16.13;;;12.20;99.90;;;;;;5023959;28;20749;-73
2023/10/24 11:43:01;;;;;;;16.70;15.10;;;12.30;99.90;;;;;;5021639;28;20033;-73
2023/10/24 11:45:27;;;;;;;15.95;14.45;;;12.30;99.90;;;;;;5022866;28;20092;-73
2023/10/24 11:47:55;;;;;;;17.70;15.98;;;12.30;99.90;;;;;;5018342;28;20045;-73
2023/10/24 11:50:36;;;;;;;16.83;15.23;;;12.30;99.90;;;;;;4998159;28;20049;-79
2023/10/24 11:53:05;;;;;;;17.98;16.33;;;12.30;99.90;;;;;;5021111;28;20186;-78
2023/10/24 11:55:34;;;;;;;24.13;21.92;;;12.30;99.90;;;;;;5020503;28;20504;-79
2023/10/24 11:58:01;;;;;;;21.30;19.23;;;12.40;99.90;;;;;;5001200;28;20049;-80
2023/10/24 12:00:32;;;;;;;16.67;15.07;;;12.30;99.90;;;;;;5023457;28;20056;-74
2023/10/24 12:03:04;;;;;;;18.13;16.40;;;12.40;99.90;;;;;;5003660;28;20029;-73
2023/10/24 12:05:30;;;;;;;16.25;14.68;;;12.40;99.90;;;;;;5018375;28;20034;-73
2023/10/24 12:07:57;;;;;;;16.88;15.27;;;12.40;99.90;;;;;;5006445;28;20045;-73
2023/10/24 12:10:23;;;;;;;16.05;14.32;;;12.50;99.90;;;;;;5007471;28;20041;-73
2023/10/24 12:12:49;;;;;;;15.63;14.13;;;12.50;99.90;;;;;;5021258;28;20038;-78
2023/10/24 12:15:15;;;;;;;16.05;14.45;;;12.60;99.90;;;;;;5023204;28;20128;-78
2023/10/24 12:17:48;;;;;;;15.25;13.85;;;12.60;99.90;;;;;;5017782;28;20431;-79
2023/10/24 12:20:13;;;;;;;15.88;14.27;;;12.70;99.90;;;;;;4995478;28;20052;-73
2023/10/24 12:22:40;;;;;;;15.65;14.18;;;12.70;99.90;;;;;;5022153;28;20053;-73
2023/10/24 12:25:06;;;;;;;14.60;13.23;;;12.70;99.90;;;;;;5013525;28;20079;-73
2023/10/24 12:27:34;;;;;;;15.63;14.13;;;12.70;99.90;;;;;;5021471;28;20045;-73
2023/10/24 12:29:59;;;;;;;16.27;14.77;;;12.60;99.90;;;;;;5010427;28;20050;-73